KMYF/MYF METAR and TAF weather

Enter ICAO airport designator
Station Type Date Time Source
KMYF METAR 2020/01/19 13:53 UTC NOAA

KMYF 191353Z 00000KT 10SM CLR 07/02 A3008 RMK AO2 SLP184 T00670017


Station Type Date Time Source
KMYF Decoded METAR 2020/01/19 13:53 UTC NOAA

SAN DIEGO MONTGOMERY FIELD, CA, United States (KMYF) 32-49N 117-08W 136M
Jan 19, 2020 - 08:53 AM EST / 2020.01.19 1353 UTC
Wind: Calm:0
Visibility: 10 mile(s):0
Sky conditions: clear
Temperature: 44.1 F (6.7 C)
Dew Point: 35.1 F (1.7 C)
Relative Humidity: 70%
Pressure (altimeter): 30.08 in. Hg (1018 hPa)
ob: KMYF 191353Z 00000KT 10SM CLR 07/02 A3008 RMK AO2 SLP184 T00670017
cycle: 14

Station Type Date Time Source
KMYF TAF UTC NOAA

Error!

Example: see airport list